sensor_id;sensor_type;location;lat;lon;timestamp;temperature;humidity
75296;DHT22;64623;44.738;37.804;2023-12-20T00:00:18;-3.17;118.99
75296;DHT22;64623;44.738;37.804;2023-12-20T00:01:22;-3.17;118.99
75296;DHT22;64623;44.738;37.804;2023-12-20T00:02:26;-3.21;118.99
75296;DHT22;64623;44.738;37.804;2023-12-20T00:03:29;-3.23;118.99
75296;DHT22;64623;44.738;37.804;2023-12-20T00:04:37;-3.13;118.99
75296;DHT22;64623;44.738;37.804;2023-12-20T00:05:40;-3.25;118.99
75296;DHT22;64623;44.738;37.804;2023-12-20T00:06:44;-3.21;118.99
75296;DHT22;64623;44.738;37.804;2023-12-20T00:07:47;-3.11;118.99
75296;DHT22;64623;44.738;37.804;2023-12-20T00:08:50;-3.19;118.99
75296;DHT22;64623;44.738;37.804;2023-12-20T00:09:53;-3.17;118.99
75296;DHT22;64623;44.738;37.804;2023-12-20T00:10:56;-3.07;118.99
75296;DHT22;64623;44.738;37.804;2023-12-20T00:12:00;-3.07;118.99
75296;DHT22;64623;44.738;37.804;2023-12-20T00:13:03;-3.12;118.99
75296;DHT22;64623;44.738;37.804;2023-12-20T00:14:06;-3.00;118.99
75296;DHT22;64623;44.738;37.804;2023-12-20T00:15:09;-2.97;118.99
75296;DHT22;64623;44.738;37.804;2023-12-20T00:16:13;-2.95;118.99
75296;DHT22;64623;44.738;37.804;2023-12-20T00:17:16;-2.94;118.99
75296;DHT22;64623;44.738;37.804;2023-12-20T00:18:19;-2.93;118.99
75296;DHT22;64623;44.738;37.804;2023-12-20T00:19:22;-2.95;118.99
75296;DHT22;64623;44.738;37.804;2023-12-20T00:20:26;-2.93;118.99
75296;DHT22;64623;44.738;37.804;2023-12-20T00:21:29;-2.93;118.99
75296;DHT22;64623;44.738;37.804;2023-12-20T00:22:32;-2.92;118.99
75296;DHT22;64623;44.738;37.804;2023-12-20T00:23:35;-2.90;118.99
75296;DHT22;64623;44.738;37.804;2023-12-20T00:24:38;-2.92;118.99
75296;DHT22;64623;44.738;37.804;2023-12-20T00:25:42;-2.91;118.99
75296;DHT22;64623;44.738;37.804;2023-12-20T00:26:45;-2.92;118.99
75296;DHT22;64623;44.738;37.804;2023-12-20T00:27:48;-2.86;118.99
75296;DHT22;64623;44.738;37.804;2023-12-20T00:28:52;-2.87;118.99
75296;DHT22;64623;44.738;37.804;2023-12-20T00:29:55;-2.84;118.99
75296;DHT22;64623;44.738;37.804;2023-12-20T00:30:58;-2.84;118.99
75296;DHT22;64623;44.738;37.804;2023-12-20T00:32:01;-2.88;118.99
75296;DHT22;64623;44.738;37.804;2023-12-20T00:33:04;-2.94;118.99
75296;DHT22;64623;44.738;37.804;2023-12-20T00:34:07;-2.86;118.99
75296;DHT22;64623;44.738;37.804;2023-12-20T00:35:11;-2.89;118.99
75296;DHT22;64623;44.738;37.804;2023-12-20T00:36:14;-2.91;118.99
75296;DHT22;64623;44.738;37.804;2023-12-20T00:37:17;-2.87;118.99
75296;DHT22;64623;44.738;37.804;2023-12-20T00:38:20;-2.91;118.99
75296;DHT22;64623;44.738;37.804;2023-12-20T00:39:23;-2.89;118.99
75296;DHT22;64623;44.738;37.804;2023-12-20T00:40:27;-2.87;118.99
75296;DHT22;64623;44.738;37.804;2023-12-20T00:41:30;-2.90;118.99
75296;DHT22;64623;44.738;37.804;2023-12-20T00:42:33;-2.95;118.99
75296;DHT22;64623;44.738;37.804;2023-12-20T00:43:37;-2.96;118.99
75296;DHT22;64623;44.738;37.804;2023-12-20T00:44:40;-2.95;118.99
75296;DHT22;64623;44.738;37.804;2023-12-20T00:45:43;-2.97;118.99
75296;DHT22;64623;44.738;37.804;2023-12-20T00:46:46;-2.94;118.99
75296;DHT22;64623;44.738;37.804;2023-12-20T00:47:49;-2.94;118.99
75296;DHT22;64623;44.738;37.804;2023-12-20T00:48:53;-2.94;118.99
75296;DHT22;64623;44.738;37.804;2023-12-20T00:49:56;-2.89;118.99
75296;DHT22;64623;44.738;37.804;2023-12-20T00:50:59;-2.88;118.99
75296;DHT22;64623;44.738;37.804;2023-12-20T00:52:02;-2.87;118.99
75296;DHT22;64623;44.738;37.804;2023-12-20T00:53:05;-2.88;118.99
75296;DHT22;64623;44.738;37.804;2023-12-20T00:54:09;-2.93;118.99
75296;DHT22;64623;44.738;37.804;2023-12-20T00:55:12;-2.92;118.99
75296;DHT22;64623;44.738;37.804;2023-12-20T00:56:15;-2.91;118.99
75296;DHT22;64623;44.738;37.804;2023-12-20T00:57:18;-2.91;118.99
75296;DHT22;64623;44.738;37.804;2023-12-20T00:58:21;-2.90;118.99
75296;DHT22;64623;44.738;37.804;2023-12-20T00:59:25;-2.90;118.99
75296;DHT22;64623;44.738;37.804;2023-12-20T01:00:28;-2.91;118.99
75296;DHT22;64623;44.738;37.804;2023-12-20T01:01:31;-2.87;118.99
75296;DHT22;64623;44.738;37.804;2023-12-20T01:02:36;-2.82;118.99
75296;DHT22;64623;44.738;37.804;2023-12-20T01:03:39;-2.87;118.99
75296;DHT22;64623;44.738;37.804;2023-12-20T01:04:42;-2.84;118.99
75296;DHT22;64623;44.738;37.804;2023-12-20T01:05:46;-2.87;118.99
75296;DHT22;64623;44.738;37.804;2023-12-20T01:06:49;-2.84;118.99
75296;DHT22;64623;44.738;37.804;2023-12-20T01:07:52;-2.86;118.99
75296;DHT22;64623;44.738;37.804;2023-12-20T01:08:55;-2.83;118.99
75296;DHT22;64623;44.738;37.804;2023-12-20T01:09:59;-2.86;118.99
75296;DHT22;64623;44.738;37.804;2023-12-20T01:11:05;-2.88;118.99
75296;DHT22;64623;44.738;37.804;2023-12-20T01:12:08;-2.82;118.99
75296;DHT22;64623;44.738;37.804;2023-12-20T01:13:12;-2.81;118.99
75296;DHT22;64623;44.738;37.804;2023-12-20T01:14:15;-2.84;118.99
75296;DHT22;64623;44.738;37.804;2023-12-20T01:15:18;-2.83;118.99
75296;DHT22;64623;44.738;37.804;2023-12-20T01:16:21;-2.84;118.99
75296;DHT22;64623;44.738;37.804;2023-12-20T01:17:24;-2.87;118.99
75296;DHT22;64623;44.738;37.804;2023-12-20T01:18:27;-2.91;118.99
75296;DHT22;64623;44.738;37.804;2023-12-20T01:19:31;-3.09;118.99
75296;DHT22;64623;44.738;37.804;2023-12-20T01:20:34;-3.07;118.99
75296;DHT22;64623;44.738;37.804;2023-12-20T01:21:37;-3.21;118.99
75296;DHT22;64623;44.738;37.804;2023-12-20T01:22:40;-3.10;118.99
75296;DHT22;64623;44.738;37.804;2023-12-20T01:23:45;-3.00;118.99
75296;DHT22;64623;44.738;37.804;2023-12-20T01:24:48;-3.03;118.99
75296;DHT22;64623;44.738;37.804;2023-12-20T01:25:52;-3.01;118.99
75296;DHT22;64623;44.738;37.804;2023-12-20T01:26:55;-3.00;118.99
75296;DHT22;64623;44.738;37.804;2023-12-20T01:27:58;-3.04;118.99
75296;DHT22;64623;44.738;37.804;2023-12-20T01:29:01;-3.09;118.99
75296;DHT22;64623;44.738;37.804;2023-12-20T01:30:05;-3.06;118.99
75296;DHT22;64623;44.738;37.804;2023-12-20T01:31:09;-3.09;118.99
75296;DHT22;64623;44.738;37.804;2023-12-20T01:32:12;-3.02;118.99
75296;DHT22;64623;44.738;37.804;2023-12-20T01:33:15;-3.03;118.99
75296;DHT22;64623;44.738;37.804;2023-12-20T01:34:18;-3.09;118.99
75296;DHT22;64623;44.738;37.804;2023-12-20T01:35:21;-3.09;118.99
75296;DHT22;64623;44.738;37.804;2023-12-20T01:36:24;-3.10;118.99
75296;DHT22;64623;44.738;37.804;2023-12-20T01:37:28;-3.07;118.99
75296;DHT22;64623;44.738;37.804;2023-12-20T01:38:32;-3.04;118.99
75296;DHT22;64623;44.738;37.804;2023-12-20T01:39:35;-2.96;118.99
75296;DHT22;64623;44.738;37.804;2023-12-20T01:40:38;-3.05;118.99
75296;DHT22;64623;44.738;37.804;2023-12-20T01:41:41;-3.01;118.99
75296;DHT22;64623;44.738;37.804;2023-12-20T01:42:44;-2.98;118.99
75296;DHT22;64623;44.738;37.804;2023-12-20T01:43:48;-2.97;118.99
75296;DHT22;64623;44.738;37.804;2023-12-20T01:44:51;-2.97;118.99
75296;DHT22;64623;44.738;37.804;2023-12-20T01:45:57;-2.95;118.99
75296;DHT22;64623;44.738;37.804;2023-12-20T01:47:00;-2.97;118.99
75296;DHT22;64623;44.738;37.804;2023-12-20T01:48:05;-3.03;118.99
75296;DHT22;64623;44.738;37.804;2023-12-20T01:49:08;-3.08;118.99
75296;DHT22;64623;44.738;37.804;2023-12-20T01:50:11;-3.17;118.99
75296;DHT22;64623;44.738;37.804;2023-12-20T01:51:15;-3.12;118.99
75296;DHT22;64623;44.738;37.804;2023-12-20T01:52:19;-3.19;118.99
75296;DHT22;64623;44.738;37.804;2023-12-20T01:53:25;-3.23;118.99
75296;DHT22;64623;44.738;37.804;2023-12-20T01:54:29;-3.25;118.99
75296;DHT22;64623;44.738;37.804;2023-12-20T01:55:35;-3.22;118.99
75296;DHT22;64623;44.738;37.804;2023-12-20T01:56:39;-3.25;118.99
75296;DHT22;64623;44.738;37.804;2023-12-20T01:57:43;-3.23;118.99
75296;DHT22;64623;44.738;37.804;2023-12-20T01:58:48;-3.19;118.99
75296;DHT22;64623;44.738;37.804;2023-12-20T01:59:51;-3.20;118.99
75296;DHT22;64623;44.738;37.804;2023-12-20T02:00:54;-3.16;118.99
75296;DHT22;64623;44.738;37.804;2023-12-20T02:01:58;-3.16;118.99
75296;DHT22;64623;44.738;37.804;2023-12-20T02:03:06;-3.16;118.99
75296;DHT22;64623;44.738;37.804;2023-12-20T02:04:10;-3.13;118.99
75296;DHT22;64623;44.738;37.804;2023-12-20T02:05:13;-3.17;118.99
75296;DHT22;64623;44.738;37.804;2023-12-20T02:06:17;-3.21;118.99
75296;DHT22;64623;44.738;37.804;2023-12-20T02:07:21;-3.16;118.99
75296;DHT22;64623;44.738;37.804;2023-12-20T02:08:25;-3.18;118.99
75296;DHT22;64623;44.738;37.804;2023-12-20T02:09:28;-3.15;118.99
75296;DHT22;64623;44.738;37.804;2023-12-20T02:10:32;-3.07;118.99
75296;DHT22;64623;44.738;37.804;2023-12-20T02:11:36;-3.07;118.99
75296;DHT22;64623;44.738;37.804;2023-12-20T02:12:39;-3.04;118.99
75296;DHT22;64623;44.738;37.804;2023-12-20T02:13:43;-3.02;118.99
75296;DHT22;64623;44.738;37.804;2023-12-20T02:14:46;-3.05;118.99
75296;DHT22;64623;44.738;37.804;2023-12-20T02:15:49;-3.06;118.99
75296;DHT22;64623;44.738;37.804;2023-12-20T02:16:53;-3.05;118.99
75296;DHT22;64623;44.738;37.804;2023-12-20T02:17:56;-3.00;118.99
75296;DHT22;64623;44.738;37.804;2023-12-20T02:19:20;-2.95;118.99
75296;DHT22;64623;44.738;37.804;2023-12-20T02:20:23;-2.96;118.99
75296;DHT22;64623;44.738;37.804;2023-12-20T02:21:35;-2.95;118.99
75296;DHT22;64623;44.738;37.804;2023-12-20T02:22:38;-2.94;118.99
75296;DHT22;64623;44.738;37.804;2023-12-20T02:23:41;-2.94;118.99
75296;DHT22;64623;44.738;37.804;2023-12-20T02:24:45;-2.93;118.99
75296;DHT22;64623;44.738;37.804;2023-12-20T02:25:48;-2.95;118.99
75296;DHT22;64623;44.738;37.804;2023-12-20T02:26:51;-2.95;118.99
75296;DHT22;64623;44.738;37.804;2023-12-20T02:27:54;-2.96;118.99
75296;DHT22;64623;44.738;37.804;2023-12-20T02:28:58;-2.96;118.99
75296;DHT22;64623;44.738;37.804;2023-12-20T02:30:02;-2.98;118.99
75296;DHT22;64623;44.738;37.804;2023-12-20T02:31:06;-2.93;118.99
75296;DHT22;64623;44.738;37.804;2023-12-20T02:32:09;-2.94;118.99
75296;DHT22;64623;44.738;37.804;2023-12-20T02:33:13;-2.94;118.99
75296;DHT22;64623;44.738;37.804;2023-12-20T02:34:16;-2.96;118.99
75296;DHT22;64623;44.738;37.804;2023-12-20T02:35:20;-2.96;118.99
75296;DHT22;64623;44.738;37.804;2023-12-20T02:36:23;-2.96;118.99
75296;DHT22;64623;44.738;37.804;2023-12-20T02:37:26;-2.94;118.99
75296;DHT22;64623;44.738;37.804;2023-12-20T02:38:29;-2.96;118.99
75296;DHT22;64623;44.738;37.804;2023-12-20T02:39:33;-2.93;118.99
75296;DHT22;64623;44.738;37.804;2023-12-20T02:40:36;-2.96;118.99
75296;DHT22;64623;44.738;37.804;2023-12-20T02:41:39;-2.92;118.99
75296;DHT22;64623;44.738;37.804;2023-12-20T02:42:42;-2.95;118.99
75296;DHT22;64623;44.738;37.804;2023-12-20T02:43:45;-2.94;118.99
75296;DHT22;64623;44.738;37.804;2023-12-20T02:44:48;-2.90;118.99
75296;DHT22;64623;44.738;37.804;2023-12-20T02:45:52;-2.88;118.99
75296;DHT22;64623;44.738;37.804;2023-12-20T02:46:55;-2.88;118.99
75296;DHT22;64623;44.738;37.804;2023-12-20T02:47:58;-2.90;118.99
75296;DHT22;64623;44.738;37.804;2023-12-20T02:49:01;-2.89;118.99
75296;DHT22;64623;44.738;37.804;2023-12-20T02:50:05;-2.90;118.99
75296;DHT22;64623;44.738;37.804;2023-12-20T02:51:08;-2.89;118.99
75296;DHT22;64623;44.738;37.804;2023-12-20T02:52:11;-2.89;118.99
75296;DHT22;64623;44.738;37.804;2023-12-20T02:53:15;-2.90;118.99
75296;DHT22;64623;44.738;37.804;2023-12-20T02:54:18;-2.91;118.99
75296;DHT22;64623;44.738;37.804;2023-12-20T02:55:21;-2.92;118.99
75296;DHT22;64623;44.738;37.804;2023-12-20T02:56:24;-2.94;118.99
75296;DHT22;64623;44.738;37.804;2023-12-20T02:57:27;-2.93;118.99
75296;DHT22;64623;44.738;37.804;2023-12-20T02:58:30;-2.94;118.99
75296;DHT22;64623;44.738;37.804;2023-12-20T02:59:33;-2.96;118.99
75296;DHT22;64623;44.738;37.804;2023-12-20T03:00:37;-2.95;118.99
75296;DHT22;64623;44.738;37.804;2023-12-20T03:01:46;-2.88;118.99
75296;DHT22;64623;44.738;37.804;2023-12-20T03:02:49;-2.84;118.99
75296;DHT22;64623;44.738;37.804;2023-12-20T03:03:52;-2.82;118.99
75296;DHT22;64623;44.738;37.804;2023-12-20T03:04:55;-2.89;118.99
75296;DHT22;64623;44.738;37.804;2023-12-20T03:06:01;-2.86;118.99
75296;DHT22;64623;44.738;37.804;2023-12-20T03:07:04;-2.84;118.99
75296;DHT22;64623;44.738;37.804;2023-12-20T03:08:07;-2.83;118.99
75296;DHT22;64623;44.738;37.804;2023-12-20T03:09:10;-2.79;118.99
75296;DHT22;64623;44.738;37.804;2023-12-20T03:10:14;-2.80;118.99
75296;DHT22;64623;44.738;37.804;2023-12-20T03:11:17;-2.86;118.99
75296;DHT22;64623;44.738;37.804;2023-12-20T03:12:20;-2.87;118.99
75296;DHT22;64623;44.738;37.804;2023-12-20T03:13:23;-2.88;118.99
75296;DHT22;64623;44.738;37.804;2023-12-20T03:14:26;-2.84;118.99
75296;DHT22;64623;44.738;37.804;2023-12-20T03:15:30;-2.87;118.99
75296;DHT22;64623;44.738;37.804;2023-12-20T03:16:33;-2.84;118.99
75296;DHT22;64623;44.738;37.804;2023-12-20T03:17:38;-2.86;118.99
75296;DHT22;64623;44.738;37.804;2023-12-20T03:18:41;-2.83;118.99
75296;DHT22;64623;44.738;37.804;2023-12-20T03:19:44;-2.81;118.99
75296;DHT22;64623;44.738;37.804;2023-12-20T03:20:47;-2.77;118.99
75296;DHT22;64623;44.738;37.804;2023-12-20T03:21:52;-2.81;118.99
75296;DHT22;64623;44.738;37.804;2023-12-20T03:22:56;-2.83;118.99
75296;DHT22;64623;44.738;37.804;2023-12-20T03:23:59;-2.80;118.99
75296;DHT22;64623;44.738;37.804;2023-12-20T03:25:02;-2.82;118.99
75296;DHT22;64623;44.738;37.804;2023-12-20T03:26:08;-2.82;118.99
75296;DHT22;64623;44.738;37.804;2023-12-20T03:27:12;-2.82;118.99
75296;DHT22;64623;44.738;37.804;2023-12-20T03:28:15;-2.82;118.99
75296;DHT22;64623;44.738;37.804;2023-12-20T03:29:18;-2.84;118.99
75296;DHT22;64623;44.738;37.804;2023-12-20T03:30:22;-2.83;118.99
75296;DHT22;64623;44.738;37.804;2023-12-20T03:31:25;-2.81;118.99
75296;DHT22;64623;44.738;37.804;2023-12-20T03:32:28;-2.82;118.99
75296;DHT22;64623;44.738;37.804;2023-12-20T03:33:31;-2.83;118.99
75296;DHT22;64623;44.738;37.804;2023-12-20T03:34:34;-2.80;118.99
75296;DHT22;64623;44.738;37.804;2023-12-20T03:35:38;-2.80;118.99
75296;DHT22;64623;44.738;37.804;2023-12-20T03:36:41;-2.79;118.99
75296;DHT22;64623;44.738;37.804;2023-12-20T03:37:44;-2.80;118.99
75296;DHT22;64623;44.738;37.804;2023-12-20T03:38:47;-2.82;118.99
75296;DHT22;64623;44.738;37.804;2023-12-20T03:39:50;-2.83;118.99
75296;DHT22;64623;44.738;37.804;2023-12-20T03:40:54;-2.86;118.99
75296;DHT22;64623;44.738;37.804;2023-12-20T03:41:57;-2.83;118.99
75296;DHT22;64623;44.738;37.804;2023-12-20T03:43:00;-2.84;118.99
75296;DHT22;64623;44.738;37.804;2023-12-20T03:44:04;-2.84;118.99
75296;DHT22;64623;44.738;37.804;2023-12-20T03:45:07;-2.86;118.99
75296;DHT22;64623;44.738;37.804;2023-12-20T03:46:11;-2.83;118.99
75296;DHT22;64623;44.738;37.804;2023-12-20T03:47:14;-2.84;118.99
75296;DHT22;64623;44.738;37.804;2023-12-20T03:48:17;-2.87;118.99
75296;DHT22;64623;44.738;37.804;2023-12-20T03:49:21;-2.90;118.99
75296;DHT22;64623;44.738;37.804;2023-12-20T03:50:24;-2.88;118.99
75296;DHT22;64623;44.738;37.804;2023-12-20T03:51:27;-2.93;118.99
75296;DHT22;64623;44.738;37.804;2023-12-20T03:52:30;-2.74;118.99
75296;DHT22;64623;44.738;37.804;2023-12-20T03:53:33;-2.79;118.99
75296;DHT22;64623;44.738;37.804;2023-12-20T03:54:36;-2.77;118.99
75296;DHT22;64623;44.738;37.804;2023-12-20T03:55:40;-2.80;118.99
75296;DHT22;64623;44.738;37.804;2023-12-20T03:56:43;-2.77;118.99
75296;DHT22;64623;44.738;37.804;2023-12-20T03:57:46;-2.84;118.99
75296;DHT22;64623;44.738;37.804;2023-12-20T03:58:49;-2.74;118.99
75296;DHT22;64623;44.738;37.804;2023-12-20T03:59:53;-2.73;118.99
75296;DHT22;64623;44.738;37.804;2023-12-20T04:00:56;-2.69;118.99
75296;DHT22;64623;44.738;37.804;2023-12-20T04:01:59;-2.73;118.99
75296;DHT22;64623;44.738;37.804;2023-12-20T04:03:03;-2.78;118.99
75296;DHT22;64623;44.738;37.804;2023-12-20T04:04:06;-2.83;118.99
75296;DHT22;64623;44.738;37.804;2023-12-20T04:05:10;-2.79;118.99
75296;DHT22;64623;44.738;37.804;2023-12-20T04:06:17;-2.75;118.99
75296;DHT22;64623;44.738;37.804;2023-12-20T04:07:21;-2.76;118.99
75296;DHT22;64623;44.738;37.804;2023-12-20T04:08:24;-2.72;118.99
75296;DHT22;64623;44.738;37.804;2023-12-20T04:09:27;-2.65;118.99
75296;DHT22;64623;44.738;37.804;2023-12-20T04:10:31;-2.65;118.99
75296;DHT22;64623;44.738;37.804;2023-12-20T04:11:34;-2.74;118.99
75296;DHT22;64623;44.738;37.804;2023-12-20T04:12:37;-2.76;118.99
75296;DHT22;64623;44.738;37.804;2023-12-20T04:13:40;-2.75;118.99
75296;DHT22;64623;44.738;37.804;2023-12-20T04:14:44;-2.73;118.99
75296;DHT22;64623;44.738;37.804;2023-12-20T04:15:47;-2.72;118.99
75296;DHT22;64623;44.738;37.804;2023-12-20T04:16:51;-2.78;118.99
75296;DHT22;64623;44.738;37.804;2023-12-20T04:17:54;-2.78;118.99
75296;DHT22;64623;44.738;37.804;2023-12-20T04:18:57;-2.76;118.99
75296;DHT22;64623;44.738;37.804;2023-12-20T04:20:01;-2.76;118.99
75296;DHT22;64623;44.738;37.804;2023-12-20T04:21:05;-2.82;118.99
75296;DHT22;64623;44.738;37.804;2023-12-20T04:22:09;-2.82;118.99
75296;DHT22;64623;44.738;37.804;2023-12-20T04:23:13;-2.82;118.99
75296;DHT22;64623;44.738;37.804;2023-12-20T04:24:16;-2.80;118.99
75296;DHT22;64623;44.738;37.804;2023-12-20T04:25:20;-2.83;118.99
75296;DHT22;64623;44.738;37.804;2023-12-20T04:26:23;-2.81;118.99
75296;DHT22;64623;44.738;37.804;2023-12-20T04:27:26;-2.83;118.99
75296;DHT22;64623;44.738;37.804;2023-12-20T04:28:29;-2.83;118.99
75296;DHT22;64623;44.738;37.804;2023-12-20T04:29:34;-2.82;118.99
75296;DHT22;64623;44.738;37.804;2023-12-20T04:30:37;-2.81;118.99
75296;DHT22;64623;44.738;37.804;2023-12-20T04:31:40;-2.82;118.99
75296;DHT22;64623;44.738;37.804;2023-12-20T04:32:43;-2.81;118.99
75296;DHT22;64623;44.738;37.804;2023-12-20T04:33:46;-2.92;118.99
75296;DHT22;64623;44.738;37.804;2023-12-20T04:34:50;-2.76;118.99
75296;DHT22;64623;44.738;37.804;2023-12-20T04:35:53;-2.78;118.99
75296;DHT22;64623;44.738;37.804;2023-12-20T04:36:56;-2.79;118.99
75296;DHT22;64623;44.738;37.804;2023-12-20T04:37:59;-2.74;118.99
75296;DHT22;64623;44.738;37.804;2023-12-20T04:39:03;-2.78;118.99
75296;DHT22;64623;44.738;37.804;2023-12-20T04:40:06;-2.82;118.99
75296;DHT22;64623;44.738;37.804;2023-12-20T04:41:11;-2.78;118.99
75296;DHT22;64623;44.738;37.804;2023-12-20T04:42:18;-2.80;118.99
75296;DHT22;64623;44.738;37.804;2023-12-20T04:43:21;-2.87;118.99
75296;DHT22;64623;44.738;37.804;2023-12-20T04:44:25;-2.84;118.99
75296;DHT22;64623;44.738;37.804;2023-12-20T04:45:28;-2.88;118.99
75296;DHT22;64623;44.738;37.804;2023-12-20T04:46:31;-2.86;118.99
75296;DHT22;64623;44.738;37.804;2023-12-20T04:47:34;-2.90;118.99
75296;DHT22;64623;44.738;37.804;2023-12-20T04:48:37;-2.91;118.99
75296;DHT22;64623;44.738;37.804;2023-12-20T04:49:41;-2.88;118.99
75296;DHT22;64623;44.738;37.804;2023-12-20T04:50:44;-2.91;118.99
75296;DHT22;64623;44.738;37.804;2023-12-20T04:51:47;-2.95;118.99
75296;DHT22;64623;44.738;37.804;2023-12-20T04:52:51;-2.93;118.99
75296;DHT22;64623;44.738;37.804;2023-12-20T04:53:54;-2.92;118.99
75296;DHT22;64623;44.738;37.804;2023-12-20T04:54:57;-2.97;118.99
75296;DHT22;64623;44.738;37.804;2023-12-20T04:56:00;-2.93;118.99
75296;DHT22;64623;44.738;37.804;2023-12-20T04:57:04;-2.94;118.99
75296;DHT22;64623;44.738;37.804;2023-12-20T04:58:07;-2.95;118.99
75296;DHT22;64623;44.738;37.804;2023-12-20T04:59:10;-3.01;118.99
75296;DHT22;64623;44.738;37.804;2023-12-20T05:00:14;-3.02;118.99
75296;DHT22;64623;44.738;37.804;2023-12-20T05:01:18;-3.03;118.99
75296;DHT22;64623;44.738;37.804;2023-12-20T05:02:21;-2.95;118.99
75296;DHT22;64623;44.738;37.804;2023-12-20T05:03:25;-2.95;118.99
75296;DHT22;64623;44.738;37.804;2023-12-20T05:04:28;-2.96;118.99
75296;DHT22;64623;44.738;37.804;2023-12-20T05:05:31;-3.02;118.99
75296;DHT22;64623;44.738;37.804;2023-12-20T05:06:34;-3.03;118.99
75296;DHT22;64623;44.738;37.804;2023-12-20T05:07:38;-3.04;118.99
75296;DHT22;64623;44.738;37.804;2023-12-20T05:08:41;-3.02;118.99
75296;DHT22;64623;44.738;37.804;2023-12-20T05:09:44;-3.04;118.99
75296;DHT22;64623;44.738;37.804;2023-12-20T05:10:48;-3.03;118.99
75296;DHT22;64623;44.738;37.804;2023-12-20T05:11:51;-2.98;118.99
75296;DHT22;64623;44.738;37.804;2023-12-20T05:12:54;-2.97;118.99
75296;DHT22;64623;44.738;37.804;2023-12-20T05:13:58;-3.02;118.99
75296;DHT22;64623;44.738;37.804;2023-12-20T05:15:01;-3.01;118.99
75296;DHT22;64623;44.738;37.804;2023-12-20T05:16:06;-3.02;118.99
75296;DHT22;64623;44.738;37.804;2023-12-20T05:17:09;-3.00;118.99
75296;DHT22;64623;44.738;37.804;2023-12-20T05:18:13;-3.01;118.99
75296;DHT22;64623;44.738;37.804;2023-12-20T05:19:16;-2.98;118.99
75296;DHT22;64623;44.738;37.804;2023-12-20T05:20:19;-2.96;118.99
75296;DHT22;64623;44.738;37.804;2023-12-20T05:21:23;-2.97;118.99
75296;DHT22;64623;44.738;37.804;2023-12-20T05:22:29;-2.97;118.99
75296;DHT22;64623;44.738;37.804;2023-12-20T05:23:32;-2.93;118.99
75296;DHT22;64623;44.738;37.804;2023-12-20T05:24:36;-2.94;118.99
75296;DHT22;64623;44.738;37.804;2023-12-20T05:25:39;-2.92;118.99
75296;DHT22;64623;44.738;37.804;2023-12-20T05:26:42;-2.95;118.99
75296;DHT22;64623;44.738;37.804;2023-12-20T05:27:45;-3.01;118.99
75296;DHT22;64623;44.738;37.804;2023-12-20T05:28:49;-2.97;118.99
75296;DHT22;64623;44.738;37.804;2023-12-20T05:29:52;-2.97;118.99
75296;DHT22;64623;44.738;37.804;2023-12-20T05:30:56;-2.98;118.99
75296;DHT22;64623;44.738;37.804;2023-12-20T05:31:59;-2.97;118.99
75296;DHT22;64623;44.738;37.804;2023-12-20T05:33:03;-3.01;118.99
75296;DHT22;64623;44.738;37.804;2023-12-20T05:34:06;-3.00;118.99
75296;DHT22;64623;44.738;37.804;2023-12-20T05:35:09;-3.00;118.99
75296;DHT22;64623;44.738;37.804;2023-12-20T05:36:13;-2.95;118.99
75296;DHT22;64623;44.738;37.804;2023-12-20T05:37:18;-2.96;118.99
75296;DHT22;64623;44.738;37.804;2023-12-20T05:38:21;-2.91;118.99
75296;DHT22;64623;44.738;37.804;2023-12-20T05:39:24;-2.93;118.99
75296;DHT22;64623;44.738;37.804;2023-12-20T05:40:27;-2.96;118.99
75296;DHT22;64623;44.738;37.804;2023-12-20T05:41:31;-2.95;118.99
75296;DHT22;64623;44.738;37.804;2023-12-20T05:42:34;-2.94;118.99
75296;DHT22;64623;44.738;37.804;2023-12-20T05:43:38;-2.93;118.99
75296;DHT22;64623;44.738;37.804;2023-12-20T05:44:41;-2.87;118.99
75296;DHT22;64623;44.738;37.804;2023-12-20T05:45:44;-2.83;118.99
75296;DHT22;64623;44.738;37.804;2023-12-20T05:46:47;-2.77;118.99
75296;DHT22;64623;44.738;37.804;2023-12-20T05:47:51;-2.71;118.99
75296;DHT22;64623;44.738;37.804;2023-12-20T05:48:54;-2.63;118.99
75296;DHT22;64623;44.738;37.804;2023-12-20T05:49:58;-2.42;118.99
75296;DHT22;64623;44.738;37.804;2023-12-20T05:51:01;-2.05;118.99
75296;DHT22;64623;44.738;37.804;2023-12-20T05:52:05;-1.74;118.99
75296;DHT22;64623;44.738;37.804;2023-12-20T05:53:08;-1.49;118.99
75296;DHT22;64623;44.738;37.804;2023-12-20T05:54:12;-1.59;118.99
75296;DHT22;64623;44.738;37.804;2023-12-20T05:55:15;-1.46;118.99
75296;DHT22;64623;44.738;37.804;2023-12-20T05:56:18;-1.36;118.99
75296;DHT22;64623;44.738;37.804;2023-12-20T05:57:21;-1.76;118.99
75296;DHT22;64623;44.738;37.804;2023-12-20T05:58:26;-1.99;118.99
75296;DHT22;64623;44.738;37.804;2023-12-20T05:59:29;-2.15;118.99
75296;DHT22;64623;44.738;37.804;2023-12-20T06:00:32;-1.89;118.99
75296;DHT22;64623;44.738;37.804;2023-12-20T06:01:35;-1.58;118.99
75296;DHT22;64623;44.738;37.804;2023-12-20T06:02:38;-1.23;118.99
75296;DHT22;64623;44.738;37.804;2023-12-20T06:03:43;-0.75;118.99
75296;DHT22;64623;44.738;37.804;2023-12-20T06:04:46;-0.43;118.99
75296;DHT22;64623;44.738;37.804;2023-12-20T06:05:50;-0.22;118.99
75296;DHT22;64623;44.738;37.804;2023-12-20T06:06:53;-0.72;118.99
75296;DHT22;64623;44.738;37.804;2023-12-20T06:07:56;-0.61;118.99
75296;DHT22;64623;44.738;37.804;2023-12-20T06:09:04;-0.54;118.99
75296;DHT22;64623;44.738;37.804;2023-12-20T06:10:08;-0.74;118.99
75296;DHT22;64623;44.738;37.804;2023-12-20T06:11:11;-0.89;118.99
75296;DHT22;64623;44.738;37.804;2023-12-20T06:12:14;-0.56;118.99
75296;DHT22;64623;44.738;37.804;2023-12-20T06:13:18;-0.36;118.99
75296;DHT22;64623;44.738;37.804;2023-12-20T06:14:21;-0.26;118.99
75296;DHT22;64623;44.738;37.804;2023-12-20T06:15:24;-0.09;118.99
75296;DHT22;64623;44.738;37.804;2023-12-20T06:16:27;-0.06;118.99
75296;DHT22;64623;44.738;37.804;2023-12-20T06:17:31;-0.39;118.99
75296;DHT22;64623;44.738;37.804;2023-12-20T06:18:34;-0.45;118.99
75296;DHT22;64623;44.738;37.804;2023-12-20T06:19:39;-0.37;118.99
75296;DHT22;64623;44.738;37.804;2023-12-20T06:20:43;-0.45;118.99
75296;DHT22;64623;44.738;37.804;2023-12-20T06:21:46;-0.54;118.99
75296;DHT22;64623;44.738;37.804;2023-12-20T06:22:49;-0.42;118.99
75296;DHT22;64623;44.738;37.804;2023-12-20T06:23:53;-0.25;118.99
75296;DHT22;64623;44.738;37.804;2023-12-20T06:24:56;-0.15;118.99
75296;DHT22;64623;44.738;37.804;2023-12-20T06:25:59;-0.01;118.99
75296;DHT22;64623;44.738;37.804;2023-12-20T06:27:03;-0.44;118.99
75296;DHT22;64623;44.738;37.804;2023-12-20T06:28:06;-0.32;118.99
75296;DHT22;64623;44.738;37.804;2023-12-20T06:29:09;-0.02;118.99